LPFL/FLW METAR and TAF weather

Enter ICAO airport designator
Station Type Date Time Source
LPFL METAR 2018/12/16 18:00 UTC NOAA

LPFL 161800Z 20024G37KT 170V230 9999 FEW023 17/08 Q1014


Station Type Date Time Source
LPFL Decoded METAR 2018/12/16 18:00 UTC NOAA

Flores Acores , Portugal (LPFL) 39-27N 031-08W 29M
Dec 16, 2018 - 01:00 PM EST / 2018.12.16 1800 UTC
Wind: from the SSW (200 degrees) at 28 MPH (24 KT) gusting to 43 MPH (37 KT) (direction variable):0
Visibility: greater than 7 mile(s):0
Sky conditions: mostly clear
Temperature: 62 F (17 C)
Dew Point: 46 F (8 C)
Relative Humidity: 55%
Pressure (altimeter): 29.94 in. Hg (1014 hPa)
ob: LPFL 161800Z 20024G37KT 170V230 9999 FEW023 17/08 Q1014
cycle: 18

Station Type Date Time Source
LPFL TAF UTC NOAA

Error!


Example: see airport list